Silver Wind — C6FG2 — position and weather

sailwx.info

Track history (hours):
 
Tides and Currents Weather Stations Pressure Air Temp Water Temp Dewpoint Dewpoint Depression Visibility Wind Speed Wind Dir Waves Ship Positions

Silver Wind

Operator: V Ships Leisure

Last reported at 2019-Dec-08 10:00 UTC. Time now 2019-Dec-08 10:49 UTC.
Position N 18°32' W 066°02'.

Length 156 m; draft 5.7 m.

Type: Passenger vessel. MMSI: 308814000.

Date/timePositionNaut miles runAvg speedWind from/ knotsBaromVisibWave heightAir tempDewpointWater temp
2019-Dec-08 10:00N 18°32' W 066°02'15415.3
2019-Dec-07 23:55N 17°59' W 063°23'717.4
2019-Dec-07 23:30N 17°58' W 063°16'23 2.3
2019-Dec-07 13:45N 17°54' W 062°52'4 0.8
2019-Dec-07 08:30N 17°50' W 062°54'12 8.0
2019-Dec-07 06:56N 17°38' W 062°54'3 6.4
2019-Dec-07 06:28N 17°35' W 062°54'18 9.0
2019-Dec-07 04:29N 17°17' W 062°56'13 7.0
2019-Dec-07 02:41N 17°10' W 062°45'4 0.2
2019-Dec-06 10:44N 17°08' W 062°41'13 2.1
2019-Dec-06 04:27N 16°56' W 062°35'  
2019-Dec-03 09:30N 17°22' W 062°56'610.1
2019-Dec-03 08:53N 17°26' W 063°01'410.8
2019-Dec-03 08:29N 17°28' W 063°05'1311.2
2019-Dec-03 07:20N 17°41' W 063°09'1010.7
2019-Dec-03 06:26N 17°47' W 063°16'1111.3
2019-Dec-03 05:30N 17°53' W 063°25'1312.4
2019-Dec-03 04:27N 18°00' W 063°37'7012.8
2019-Dec-02 23:00N 18°26' W 064°45'0 0.0
2019-Dec-02 22:30N 18°26' W 064°45'0 0.0
2019-Dec-02 21:24N 18°26' W 064°45'0 0.0
2019-Dec-02 19:30N 18°26' W 064°45'0 0.1
2019-Dec-02 19:00N 18°26' W 064°45'0 0.1
2019-Dec-02 18:24N 18°26' W 064°45'0 0.0
2019-Dec-02 17:12N 18°26' W 064°45'0 0.1
2019-Dec-02 17:00N 18°26' W 064°45'0 0.0
2019-Dec-02 16:00N 18°26' W 064°45'0 0.0
2019-Dec-02 13:00N 18°26' W 064°45'0 0.0
2019-Dec-02 11:30N 18°26' W 064°45'19 6.2
2019-Dec-02 08:30N 18°34' W 065°03'8 8.5
2019-Dec-02 07:30N 18°39' W 065°10'4 8.6
2019-Dec-02 07:00N 18°42' W 065°13'8 8.5
2019-Dec-02 06:00N 18°47' W 065°20'13 8.4
2019-Dec-02 04:30N 18°45' W 065°33'4 8.9
2019-Dec-02 04:00N 18°43' W 065°37'5 9.1
2019-Dec-02 03:30N 18°41' W 065°42'18 8.9
2019-Dec-02 01:30N 18°37' W 066°00'11 5.6
2019-Dec-01 23:31N 18°28' W 066°06'0 0.1
2019-Dec-01 19:58N 18°28' W 066°06'0 0.0
2019-Dec-01 18:28N 18°28' W 066°06'0 0.0
2019-Dec-01 16:28N 18°28' W 066°06'0 0.0
2019-Dec-01 15:58N 18°28' W 066°06'0 0.0
2019-Dec-01 13:58N 18°28' W 066°06'0 0.0
2019-Dec-01 12:58N 18°28' W 066°06'0 0.0
2019-Dec-01 12:00N 18°28' W 066°06'0 0.0
2019-Dec-01 11:30N 18°28' W 066°06'29 4.8
2019-Dec-01 05:30N 18°36' W 065°37'4 7.2
2019-Dec-01 05:00N 18°36' W 065°33'7 7.0
2019-Dec-01 04:00N 18°35' W 065°26'3 6.6
2019-Dec-01 03:30N 18°35' W 065°22'7 7.3
2019-Dec-01 02:30N 18°32' W 065°15'2911.6
2019-Dec-01 00:00N 18°13' W 064°52'99 4.8
2019-Nov-30 03:23N 17°58' W 063°10'1213.4
2019-Nov-30 02:30N 17°55' W 062°58'5 0.3
2019-Nov-29 11:56N 17°54' W 062°53'5 9.7
2019-Nov-29 11:26N 17°51' W 062°57'11 5.8
2019-Nov-29 09:30N 18°01' W 063°03'0 0.0
2019-Nov-29 07:18N 18°01' W 063°03'0 0.0
2019-Nov-29 03:06N 18°01' W 063°03'0 0.0
2019-Nov-29 00:15N 18°01' W 063°03'  
Track history (hours):
 
Tides and Currents Weather Stations Pressure Air Temp Water Temp Dewpoint Dewpoint Depression Visibility Wind Speed Wind Dir Waves Ship Positions

Silver Wind

Operator: V Ships Leisure

Last reported at 2019-Dec-08 10:00 UTC. Time now 2019-Dec-08 10:49 UTC.
Position N 18°32' W 066°02'.

Length 156 m; draft 5.7 m.

Type: Passenger vessel. MMSI: 308814000.

Date/timePositionNaut miles runAvg speedWind from/ knotsBaromVisibWave heightAir tempDewpointWater temp
2019-Dec-08 10:00N 18°32' W 066°02'15415.3
2019-Dec-07 23:55N 17°59' W 063°23'717.4
2019-Dec-07 23:30N 17°58' W 063°16'23 2.3
2019-Dec-07 13:45N 17°54' W 062°52'4 0.8
2019-Dec-07 08:30N 17°50' W 062°54'12 8.0
2019-Dec-07 06:56N 17°38' W 062°54'3 6.4
2019-Dec-07 06:28N 17°35' W 062°54'18 9.0
2019-Dec-07 04:29N 17°17' W 062°56'13 7.0
2019-Dec-07 02:41N 17°10' W 062°45'4 0.2
2019-Dec-06 10:44N 17°08' W 062°41'13 2.1
2019-Dec-06 04:27N 16°56' W 062°35'  
2019-Dec-03 09:30N 17°22' W 062°56'610.1
2019-Dec-03 08:53N 17°26' W 063°01'410.8
2019-Dec-03 08:29N 17°28' W 063°05'1311.2
2019-Dec-03 07:20N 17°41' W 063°09'1010.7
2019-Dec-03 06:26N 17°47' W 063°16'1111.3
2019-Dec-03 05:30N 17°53' W 063°25'1312.4
2019-Dec-03 04:27N 18°00' W 063°37'7012.8
2019-Dec-02 23:00N 18°26' W 064°45'0 0.0
2019-Dec-02 22:30N 18°26' W 064°45'0 0.0
2019-Dec-02 21:24N 18°26' W 064°45'0 0.0
2019-Dec-02 19:30N 18°26' W 064°45'0 0.1
2019-Dec-02 19:00N 18°26' W 064°45'0 0.1
2019-Dec-02 18:24N 18°26' W 064°45'0 0.0
2019-Dec-02 17:12N 18°26' W 064°45'0 0.1
2019-Dec-02 17:00N 18°26' W 064°45'0 0.0
2019-Dec-02 16:00N 18°26' W 064°45'0 0.0
2019-Dec-02 13:00N 18°26' W 064°45'0 0.0
2019-Dec-02 11:30N 18°26' W 064°45'19 6.2
2019-Dec-02 08:30N 18°34' W 065°03'8 8.5
2019-Dec-02 07:30N 18°39' W 065°10'4 8.6
2019-Dec-02 07:00N 18°42' W 065°13'8 8.5
2019-Dec-02 06:00N 18°47' W 065°20'13 8.4
2019-Dec-02 04:30N 18°45' W 065°33'4 8.9
2019-Dec-02 04:00N 18°43' W 065°37'5 9.1
2019-Dec-02 03:30N 18°41' W 065°42'18 8.9
2019-Dec-02 01:30N 18°37' W 066°00'11 5.6
2019-Dec-01 23:31N 18°28' W 066°06'0 0.1
2019-Dec-01 19:58N 18°28' W 066°06'0 0.0
2019-Dec-01 18:28N 18°28' W 066°06'0 0.0
2019-Dec-01 16:28N 18°28' W 066°06'0 0.0
2019-Dec-01 15:58N 18°28' W 066°06'0 0.0
2019-Dec-01 13:58N 18°28' W 066°06'0 0.0
2019-Dec-01 12:58N 18°28' W 066°06'0 0.0
2019-Dec-01 12:00N 18°28' W 066°06'0 0.0
2019-Dec-01 11:30N 18°28' W 066°06'29 4.8
2019-Dec-01 05:30N 18°36' W 065°37'4 7.2
2019-Dec-01 05:00N 18°36' W 065°33'7 7.0
2019-Dec-01 04:00N 18°35' W 065°26'3 6.6
2019-Dec-01 03:30N 18°35' W 065°22'7 7.3
2019-Dec-01 02:30N 18°32' W 065°15'2911.6
2019-Dec-01 00:00N 18°13' W 064°52'99 4.8
2019-Nov-30 03:23N 17°58' W 063°10'1213.4
2019-Nov-30 02:30N 17°55' W 062°58'5 0.3
2019-Nov-29 11:56N 17°54' W 062°53'5 9.7
2019-Nov-29 11:26N 17°51' W 062°57'11 5.8
2019-Nov-29 09:30N 18°01' W 063°03'0 0.0
2019-Nov-29 07:18N 18°01' W 063°03'0 0.0
2019-Nov-29 03:06N 18°01' W 063°03'0 0.0
2019-Nov-29 00:15N 18°01' W 063°03'  

Dump ship's entire track history